Time;durP1;ratioP1;P1;durP2;ratioP2;P2;SDS_P1;SDS_P2;PMS_P1;PMS_P2;Temp;Humidity;BMP_temperature;BMP_pressure;BME280_temperature;BME280_humidity;BME280_pressure;Samples;Min_cycle;Max_cycle;Signal;HPM_P1;HPM_P2
2023/08/25 00:00:32;;;;;;;5.53;2.00;;;21.90;69.30;;;;;;5134793;27;20020;-75
2023/08/25 00:02:57;;;;;;;4.28;2.38;;;21.90;69.70;;;;;;5134563;27;20043;-76
2023/08/25 00:05:23;;;;;;;2.42;1.92;;;22.00;70.10;;;;;;5134469;27;20465;-76
2023/08/25 00:07:49;;;;;;;4.28;1.90;;;22.00;70.40;;;;;;5134561;27;20023;-75
2023/08/25 00:10:14;;;;;;;8.75;2.58;;;21.90;72.20;;;;;;5134453;27;20479;-76
2023/08/25 00:12:41;;;;;;;4.65;2.00;;;21.90;71.50;;;;;;5134436;27;20031;-74
2023/08/25 00:15:08;;;;;;;3.70;2.40;;;21.80;71.70;;;;;;5134366;27;20064;-75
2023/08/25 00:17:33;;;;;;;3.83;1.80;;;21.70;71.40;;;;;;5134195;27;20038;-75
2023/08/25 00:20:00;;;;;;;2.83;1.77;;;21.80;71.70;;;;;;5134606;27;20027;-74
2023/08/25 00:22:27;;;;;;;3.05;2.05;;;21.80;72.00;;;;;;5134464;27;20023;-75
2023/08/25 00:24:55;;;;;;;3.65;1.92;;;21.80;72.30;;;;;;5134189;27;20031;-75
2023/08/25 00:27:21;;;;;;;3.20;2.17;;;21.80;72.20;;;;;;5132823;27;20376;-75
2023/08/25 00:29:47;;;;;;;4.55;2.20;;;21.80;71.80;;;;;;5134346;27;20023;-74
2023/08/25 00:32:14;;;;;;;3.90;1.95;;;21.80;71.30;;;;;;5132962;27;20499;-74
2023/08/25 00:34:39;;;;;;;3.97;1.98;;;21.80;71.10;;;;;;5134152;27;20023;-74
2023/08/25 00:37:05;;;;;;;3.55;2.28;;;21.80;71.50;;;;;;5132866;27;20110;-74
2023/08/25 00:39:31;;;;;;;3.38;1.92;;;21.80;71.50;;;;;;5115449;27;20475;-75
2023/08/25 00:41:56;;;;;;;3.42;2.00;;;21.80;71.50;;;;;;5113129;28;20023;-74
2023/08/25 00:44:22;;;;;;;3.78;1.80;;;21.80;71.60;;;;;;5111978;28;20370;-77
2023/08/25 00:46:48;;;;;;;4.43;1.95;;;21.70;71.10;;;;;;5113560;28;20016;-77
2023/08/25 00:49:14;;;;;;;5.35;2.22;;;21.70;71.80;;;;;;5113273;28;20031;-77
2023/08/25 00:51:39;;;;;;;4.45;2.00;;;21.70;71.20;;;;;;5112232;28;20024;-77
2023/08/25 00:54:06;;;;;;;3.45;2.05;;;21.70;71.20;;;;;;5113225;28;20031;-76
2023/08/25 00:56:32;;;;;;;2.78;1.85;;;21.70;71.00;;;;;;5111997;28;20031;-76
2023/08/25 00:58:58;;;;;;;4.15;1.88;;;21.70;70.90;;;;;;5113205;28;20102;-76
2023/08/25 01:01:24;;;;;;;5.65;2.22;;;21.90;71.40;;;;;;5113116;28;20058;-77
2023/08/25 01:03:49;;;;;;;2.72;2.20;;;22.10;70.40;;;;;;5113004;28;20069;-78
2023/08/25 01:06:18;;;;;;;4.70;2.20;;;22.00;69.20;;;;;;5112994;28;20445;-75
2023/08/25 01:08:44;;;;;;;3.63;2.15;;;22.00;69.90;;;;;;5113136;28;20042;-77
2023/08/25 01:11:48;;;;;;;4.43;2.03;;;22.00;70.50;;;;;;5113096;28;20027;-77
2023/08/25 01:14:34;;;;;;;6.35;2.58;;;22.10;70.80;;;;;;5111470;28;20054;-76
2023/08/25 01:17:17;;;;;;;4.93;2.30;;;22.10;70.40;;;;;;5112820;28;20030;-79
2023/08/25 01:19:51;;;;;;;6.38;2.47;;;22.20;69.60;;;;;;5112482;28;20111;-76
2023/08/25 01:22:24;;;;;;;4.35;2.42;;;22.20;70.00;;;;;;5112242;28;20046;-75
2023/08/25 01:24:54;;;;;;;4.38;2.15;;;22.20;69.90;;;;;;5112247;28;20027;-75
2023/08/25 01:27:20;;;;;;;5.55;2.67;;;22.10;69.50;;;;;;5112385;28;20382;-75
2023/08/25 01:29:46;;;;;;;6.05;2.17;;;22.10;70.40;;;;;;5112433;28;20547;-74
2023/08/25 01:32:11;;;;;;;4.93;2.15;;;21.90;70.90;;;;;;5112413;28;20107;-75
2023/08/25 01:34:37;;;;;;;6.70;2.50;;;21.70;71.30;;;;;;5115932;28;20039;-75
2023/08/25 01:37:13;;;;;;;4.32;1.95;;;21.80;71.30;;;;;;5118228;28;20115;-75
2023/08/25 01:39:42;;;;;;;4.15;2.33;;;21.70;71.50;;;;;;5113556;28;20031;-75
2023/08/25 01:42:09;;;;;;;6.05;2.75;;;21.60;72.00;;;;;;5110636;28;20043;-75
2023/08/25 01:44:36;;;;;;;6.40;2.15;;;21.70;72.00;;;;;;5112567;28;20388;-77
2023/08/25 01:47:05;;;;;;;4.88;2.55;;;21.60;72.10;;;;;;5112132;28;20081;-74
2023/08/25 01:49:32;;;;;;;4.25;2.20;;;21.60;72.30;;;;;;5112325;28;20047;-75
2023/08/25 01:51:59;;;;;;;5.07;2.40;;;21.70;72.50;;;;;;5112271;28;20053;-74
2023/08/25 01:54:25;;;;;;;4.75;2.20;;;21.80;71.70;;;;;;5112351;28;20357;-75
2023/08/25 01:56:50;;;;;;;6.15;2.45;;;21.90;71.80;;;;;;5112136;28;20032;-75
2023/08/25 01:59:16;;;;;;;4.40;2.38;;;22.00;71.30;;;;;;5112388;28;20050;-74
2023/08/25 02:01:41;;;;;;;5.40;2.30;;;22.10;71.30;;;;;;5112233;28;20035;-75
2023/08/25 02:04:07;;;;;;;3.50;2.13;;;22.20;70.90;;;;;;5112096;28;20036;-74
2023/08/25 02:06:33;;;;;;;4.40;2.45;;;22.30;71.10;;;;;;5112283;28;20488;-74
2023/08/25 02:08:59;;;;;;;4.68;2.50;;;22.30;71.10;;;;;;5112126;28;20028;-75
2023/08/25 02:11:24;;;;;;;5.65;2.20;;;22.20;70.90;;;;;;5110566;28;20046;-76
2023/08/25 02:13:50;;;;;;;3.17;2.17;;;22.30;71.00;;;;;;5112226;28;20483;-74
2023/08/25 02:16:15;;;;;;;4.25;2.33;;;22.30;71.10;;;;;;5112255;28;20559;-76
2023/08/25 02:18:41;;;;;;;7.03;2.50;;;22.30;71.10;;;;;;5112857;28;20369;-74
2023/08/25 02:21:06;;;;;;;6.50;2.90;;;22.30;71.10;;;;;;5116144;28;20496;-74
2023/08/25 02:23:32;;;;;;;5.10;2.40;;;22.20;71.10;;;;;;5115875;28;20035;-76
2023/08/25 02:25:57;;;;;;;6.05;2.50;;;22.20;71.40;;;;;;5116229;28;20038;-74
2023/08/25 02:28:23;;;;;;;6.35;2.70;;;22.20;71.60;;;;;;5116215;28;20047;-78
2023/08/25 02:30:48;;;;;;;5.82;2.85;;;22.10;71.80;;;;;;5114851;28;20024;-78
2023/08/25 02:33:15;;;;;;;3.75;2.30;;;22.10;72.00;;;;;;5115034;28;20110;-78
2023/08/25 02:35:41;;;;;;;5.60;2.50;;;22.20;71.90;;;;;;5114737;28;20457;-78
2023/08/25 02:38:09;;;;;;;6.78;2.83;;;22.20;71.70;;;;;;5114780;28;20031;-77
2023/08/25 02:40:37;;;;;;;7.95;2.75;;;22.30;71.90;;;;;;5114635;28;20122;-77
2023/08/25 02:43:04;;;;;;;6.57;2.53;;;22.30;71.80;;;;;;5114744;28;20526;-78
2023/08/25 02:45:31;;;;;;;3.60;2.70;;;22.30;72.00;;;;;;5114727;28;20487;-78
2023/08/25 02:47:57;;;;;;;7.65;2.58;;;22.20;72.00;;;;;;5114758;28;20023;-78
2023/08/25 02:50:23;;;;;;;5.25;2.70;;;22.20;72.10;;;;;;5120937;28;20401;-77
2023/08/25 02:52:49;;;;;;;4.85;2.60;;;22.20;72.20;;;;;;5114748;28;20055;-78
2023/08/25 02:55:16;;;;;;;6.97;2.42;;;22.20;72.30;;;;;;5115983;28;20034;-77
2023/08/25 02:57:48;;;;;;;4.93;2.63;;;22.20;72.30;;;;;;5114204;28;20057;-78
2023/08/25 03:00:16;;;;;;;7.28;2.92;;;22.30;72.20;;;;;;5109429;28;20488;-77
2023/08/25 03:02:42;;;;;;;4.75;2.50;;;22.20;72.40;;;;;;5114005;28;20036;-78
2023/08/25 03:05:09;;;;;;;6.43;2.90;;;22.20;72.40;;;;;;5114050;28;20020;-77
2023/08/25 03:07:35;;;;;;;9.95;6.43;;;22.20;72.20;;;;;;5114660;28;20023;-77
2023/08/25 03:10:01;;;;;;;6.88;3.75;;;22.30;72.20;;;;;;5114938;28;20027;-78
2023/08/25 03:12:29;;;;;;;4.20;2.70;;;22.30;72.20;;;;;;5114820;28;20031;-77
2023/08/25 03:14:55;;;;;;;4.60;2.63;;;22.30;72.10;;;;;;5114350;28;20027;-77
2023/08/25 03:17:21;;;;;;;5.47;2.85;;;22.30;72.10;;;;;;5114779;28;20046;-77
2023/08/25 03:19:47;;;;;;;7.70;3.25;;;22.30;72.20;;;;;;5114803;28;20106;-76
2023/08/25 03:22:13;;;;;;;5.53;2.78;;;22.30;72.10;;;;;;5114663;28;20123;-76
2023/08/25 03:24:38;;;;;;;6.03;2.95;;;22.40;72.10;;;;;;5114828;28;20471;-77
2023/08/25 03:27:04;;;;;;;7.13;2.88;;;22.40;72.00;;;;;;5114569;28;20040;-77
2023/08/25 03:29:31;;;;;;;6.22;3.03;;;22.30;72.20;;;;;;5114167;28;20028;-77
2023/08/25 03:31:57;;;;;;;7.00;2.65;;;22.30;72.50;;;;;;5114439;28;20024;-76
2023/08/25 03:34:23;;;;;;;8.90;2.85;;;22.20;72.60;;;;;;5114525;28;20019;-76
2023/08/25 03:36:49;;;;;;;4.15;2.35;;;22.10;72.80;;;;;;5114388;28;20473;-76
2023/08/25 03:39:14;;;;;;;6.45;2.85;;;22.20;72.80;;;;;;5114439;28;20058;-76
2023/08/25 03:41:40;;;;;;;3.42;2.40;;;22.20;72.30;;;;;;5114415;28;20031;-76
2023/08/25 03:44:05;;;;;;;4.72;2.70;;;22.20;72.00;;;;;;5113856;28;20047;-77
2023/08/25 03:46:32;;;;;;;5.60;2.38;;;22.30;72.10;;;;;;5113112;28;20032;-76
2023/08/25 03:48:58;;;;;;;6.57;2.88;;;22.20;71.70;;;;;;5113736;28;20084;-77
2023/08/25 03:51:24;;;;;;;3.30;2.30;;;22.20;71.60;;;;;;5113342;28;20417;-77
2023/08/25 03:53:49;;;;;;;4.50;2.88;;;22.20;71.50;;;;;;5113785;28;20019;-78
2023/08/25 03:56:15;;;;;;;8.38;2.80;;;22.30;71.50;;;;;;5113722;28;20132;-78
2023/08/25 03:58:40;;;;;;;4.15;2.40;;;22.20;71.20;;;;;;5113888;28;20039;-78
2023/08/25 04:01:06;;;;;;;6.40;2.70;;;22.20;70.90;;;;;;5113855;28;20457;-77
2023/08/25 04:03:32;;;;;;;7.13;2.72;;;22.20;70.90;;;;;;5114503;28;20032;-78
2023/08/25 04:05:57;;;;;;;5.25;2.60;;;22.10;71.10;;;;;;5113504;28;20047;-78
2023/08/25 04:08:23;;;;;;;9.88;2.65;;;22.10;71.10;;;;;;5113451;28;20105;-77
2023/08/25 04:10:49;;;;;;;4.60;2.60;;;22.10;71.00;;;;;;5113932;28;20026;-78
2023/08/25 04:13:14;;;;;;;5.35;2.58;;;22.10;71.00;;;;;;5113909;28;20035;-77
2023/08/25 04:15:40;;;;;;;8.32;3.25;;;22.10;71.10;;;;;;5114334;28;20389;-78
2023/08/25 04:18:05;;;;;;;5.03;2.78;;;22.10;71.00;;;;;;5114384;28;20047;-80
2023/08/25 04:20:32;;;;;;;6.65;2.78;;;22.20;70.90;;;;;;5114405;28;20047;-79
2023/08/25 04:22:59;;;;;;;6.47;2.65;;;22.20;70.60;;;;;;5113724;28;20038;-79
2023/08/25 04:25:27;;;;;;;6.90;3.03;;;22.10;70.40;;;;;;5114286;28;20402;-81
2023/08/25 04:27:53;;;;;;;6.60;2.70;;;22.10;70.20;;;;;;5114266;28;20026;-80
2023/08/25 04:30:22;;;;;;;6.47;2.85;;;22.20;70.40;;;;;;5113613;28;20023;-81
2023/08/25 04:32:52;;;;;;;3.67;2.38;;;22.10;70.40;;;;;;5113823;28;20087;-76
2023/08/25 04:35:18;;;;;;;4.72;2.70;;;22.20;70.50;;;;;;5113771;28;20012;-78
2023/08/25 04:37:47;;;;;;;6.60;2.75;;;22.20;69.80;;;;;;5112603;28;20046;-79
2023/08/25 04:40:14;;;;;;;7.18;2.90;;;22.30;69.70;;;;;;5114055;28;20016;-77
2023/08/25 04:42:40;;;;;;;6.70;3.33;;;22.30;69.70;;;;;;5112635;28;20067;-78
2023/08/25 04:45:06;;;;;;;9.35;2.88;;;22.20;69.50;;;;;;5113888;28;20058;-78
2023/08/25 04:47:32;;;;;;;4.00;2.30;;;22.20;69.50;;;;;;5113950;28;20026;-78
2023/08/25 04:49:57;;;;;;;5.00;2.70;;;22.20;69.60;;;;;;5113869;28;20024;-78
2023/08/25 04:52:23;;;;;;;7.35;2.45;;;22.20;69.70;;;;;;5113368;28;20048;-77
2023/08/25 04:54:49;;;;;;;7.00;2.70;;;22.20;69.50;;;;;;5112348;28;20485;-77
2023/08/25 04:57:15;;;;;;;6.68;2.70;;;22.20;69.50;;;;;;5113716;28;20032;-77
2023/08/25 04:59:40;;;;;;;10.57;3.55;;;22.20;69.50;;;;;;5113558;28;20020;-77
2023/08/25 05:02:06;;;;;;;5.35;2.95;;;22.20;69.40;;;;;;5113588;28;20107;-77
2023/08/25 05:04:31;;;;;;;3.72;2.50;;;22.20;69.20;;;;;;5113615;28;20480;-77
2023/08/25 05:06:57;;;;;;;6.00;2.50;;;22.20;69.40;;;;;;5113314;28;20026;-76
2023/08/25 05:09:22;;;;;;;5.57;2.75;;;22.20;69.20;;;;;;5113489;28;20102;-77
2023/08/25 05:11:48;;;;;;;4.88;2.80;;;22.30;69.10;;;;;;5111914;28;20430;-77
2023/08/25 05:14:13;;;;;;;5.07;2.83;;;22.40;68.90;;;;;;5112911;28;20031;-78
2023/08/25 05:16:39;;;;;;;6.40;3.25;;;22.50;68.50;;;;;;5113242;28;20027;-79
2023/08/25 05:19:05;;;;;;;5.18;3.00;;;22.40;68.30;;;;;;5112940;28;20103;-78
2023/08/25 05:21:31;;;;;;;6.63;3.40;;;22.50;68.40;;;;;;5113125;28;20027;-78
2023/08/25 05:24:15;;;;;;;6.95;3.90;;;22.60;68.20;;;;;;5113159;28;20032;-77
2023/08/25 05:26:41;;;;;;;6.47;3.00;;;22.70;67.70;;;;;;5112738;28;20024;-78
2023/08/25 05:29:06;;;;;;;4.13;2.60;;;22.80;67.30;;;;;;5112557;28;20026;-78
2023/08/25 05:31:32;;;;;;;3.55;2.60;;;22.90;67.00;;;;;;5113653;28;20024;-87
2023/08/25 05:33:57;;;;;;;8.13;3.08;;;23.00;66.90;;;;;;5113044;28;20035;-85
2023/08/25 05:36:23;;;;;;;6.03;2.88;;;23.00;66.60;;;;;;5113828;28;20053;-86
2023/08/25 05:38:48;;;;;;;5.07;2.70;;;23.10;66.30;;;;;;5113814;28;20122;-86
2023/08/25 05:41:14;;;;;;;7.28;2.75;;;23.20;66.10;;;;;;5113335;28;20145;-85
2023/08/25 05:43:39;;;;;;;6.03;2.92;;;23.30;65.80;;;;;;5113003;28;20089;-85
2023/08/25 05:46:05;;;;;;;4.75;3.00;;;23.40;65.40;;;;;;5114007;28;20026;-85
2023/08/25 05:48:30;;;;;;;6.28;3.08;;;23.50;64.60;;;;;;5113498;28;20384;-83
2023/08/25 05:50:56;;;;;;;4.53;2.53;;;23.50;58.00;;;;;;5111739;28;20045;-79
2023/08/25 05:53:21;;;;;;;5.28;2.40;;;23.50;57.30;;;;;;5112604;28;20563;-78
2023/08/25 05:55:49;;;;;;;7.95;2.47;;;23.60;56.90;;;;;;5116858;28;20024;-82
2023/08/25 05:58:14;;;;;;;6.78;2.72;;;23.70;55.90;;;;;;5117215;28;20078;-76
2023/08/25 06:00:40;;;;;;;7.53;2.70;;;23.80;55.50;;;;;;5116901;28;20457;-77
2023/08/25 06:03:05;;;;;;;4.60;2.40;;;24.00;55.20;;;;;;5116606;28;20491;-76
2023/08/25 06:05:31;;;;;;;5.38;2.22;;;24.10;54.50;;;;;;5116540;28;20377;-74
2023/08/25 06:07:57;;;;;;;5.32;2.38;;;24.10;54.40;;;;;;5116182;28;20047;-73
2023/08/25 06:10:22;;;;;;;5.28;2.35;;;24.20;54.70;;;;;;5116706;28;20479;-73
2023/08/25 06:12:48;;;;;;;3.28;1.95;;;24.30;53.50;;;;;;5116667;28;20121;-74
2023/08/25 06:15:13;;;;;;;3.08;1.80;;;24.30;53.20;;;;;;5116601;28;20099;-74
2023/08/25 06:17:39;;;;;;;4.85;2.30;;;24.30;53.80;;;;;;5115346;28;20113;-74
2023/08/25 06:20:06;;;;;;;5.05;2.40;;;24.40;54.90;;;;;;5116425;28;20039;-74
2023/08/25 06:22:32;;;;;;;5.85;2.60;;;24.30;56.50;;;;;;5116336;28;20038;-74
2023/08/25 06:24:57;;;;;;;6.45;2.47;;;24.30;56.90;;;;;;5116419;28;20023;-74
2023/08/25 06:27:23;;;;;;;4.97;2.70;;;24.30;57.10;;;;;;5116332;28;20020;-73
2023/08/25 06:29:48;;;;;;;8.75;3.47;;;24.30;58.20;;;;;;5116265;28;20095;-73
2023/08/25 06:32:14;;;;;;;9.18;3.40;;;23.90;62.30;;;;;;5116203;28;20126;-73
2023/08/25 06:34:40;;;;;;;8.13;3.55;;;23.20;67.60;;;;;;5116114;28;20460;-73
2023/08/25 06:37:05;;;;;;;5.35;3.55;;;22.80;68.60;;;;;;5116039;28;20026;-74
2023/08/25 06:39:31;;;;;;;5.22;3.10;;;22.60;69.40;;;;;;5115862;28;20459;-73
2023/08/25 06:41:56;;;;;;;6.35;3.20;;;22.60;69.40;;;;;;5116095;28;20024;-72
2023/08/25 06:44:22;;;;;;;5.80;3.58;;;22.50;69.50;;;;;;5115690;28;20040;-72
2023/08/25 06:46:47;;;;;;;6.93;3.70;;;22.50;69.60;;;;;;5115868;28;20020;-73
2023/08/25 06:49:13;;;;;;;5.97;3.03;;;22.40;69.40;;;;;;5115826;28;20032;-72
2023/08/25 06:51:39;;;;;;;6.22;3.20;;;22.50;68.70;;;;;;5115428;28;20031;-74
2023/08/25 06:54:05;;;;;;;18.48;4.78;;;22.70;68.90;;;;;;5115482;28;20020;-77
2023/08/25 06:56:30;;;;;;;8.55;4.22;;;22.70;69.10;;;;;;5115612;28;20042;-76
2023/08/25 06:58:56;;;;;;;8.63;3.40;;;22.80;69.20;;;;;;5115304;28;20031;-75
2023/08/25 07:01:21;;;;;;;11.23;3.95;;;22.80;69.00;;;;;;5115047;28;20032;-73
2023/08/25 07:03:47;;;;;;;9.52;3.28;;;22.90;68.50;;;;;;5115318;28;20051;-73
2023/08/25 07:06:13;;;;;;;6.57;3.67;;;22.90;68.70;;;;;;5115325;28;20058;-73
2023/08/25 07:08:39;;;;;;;7.95;3.08;;;22.80;69.00;;;;;;5115632;28;20055;-77
2023/08/25 07:11:04;;;;;;;9.32;3.65;;;22.60;69.60;;;;;;5115331;28;20062;-75
2023/08/25 07:13:31;;;;;;;5.80;3.47;;;22.60;70.00;;;;;;5114333;28;20020;-76
2023/08/25 07:15:57;;;;;;;8.73;4.00;;;22.50;70.00;;;;;;5114813;28;20035;-76
2023/08/25 07:18:24;;;;;;;7.70;3.45;;;22.50;70.20;;;;;;5114235;28;20023;-81
2023/08/25 07:20:50;;;;;;;8.38;4.22;;;22.60;70.20;;;;;;5115447;28;20024;-75
2023/08/25 07:23:18;;;;;;;14.15;4.35;;;22.60;70.20;;;;;;5115378;28;20112;-76
2023/08/25 07:25:44;;;;;;;8.32;3.97;;;22.60;70.60;;;;;;5115247;28;20051;-77
2023/08/25 07:28:10;;;;;;;10.65;3.58;;;22.60;69.90;;;;;;5115112;28;20073;-77
2023/08/25 07:30:37;;;;;;;12.38;3.38;;;22.50;70.40;;;;;;5115099;28;20044;-75
2023/08/25 07:33:03;;;;;;;7.30;3.47;;;22.60;70.00;;;;;;5115107;28;20028;-74
2023/08/25 07:35:32;;;;;;;8.15;3.30;;;22.70;70.00;;;;;;5115080;28;20039;-75
2023/08/25 07:37:57;;;;;;;4.90;3.10;;;22.60;70.40;;;;;;5115123;28;20030;-71
2023/08/25 07:40:23;;;;;;;8.20;3.20;;;22.50;69.50;;;;;;5114947;28;20019;-72
2023/08/25 07:42:49;;;;;;;7.78;3.38;;;22.30;70.80;;;;;;5114616;28;20485;-72
2023/08/25 07:45:15;;;;;;;6.78;3.47;;;22.00;73.00;;;;;;5113486;28;20030;-72
2023/08/25 07:47:40;;;;;;;5.50;3.35;;;21.70;74.50;;;;;;5114761;28;20107;-76
2023/08/25 07:50:07;;;;;;;6.57;4.15;;;21.70;75.00;;;;;;5114767;28;20030;-76
2023/08/25 07:52:32;;;;;;;7.93;3.70;;;21.60;76.90;;;;;;5114680;28;20416;-75
2023/08/25 07:54:58;;;;;;;7.50;3.38;;;21.40;77.90;;;;;;5114592;28;20062;-75
2023/08/25 07:57:24;;;;;;;7.70;3.47;;;21.10;77.80;;;;;;5114667;28;20023;-74
2023/08/25 07:59:50;;;;;;;8.02;3.40;;;20.80;79.90;;;;;;5114750;28;20453;-74
2023/08/25 08:02:15;;;;;;;5.78;3.33;;;20.70;80.30;;;;;;5114570;28;20027;-75
2023/08/25 08:04:41;;;;;;;7.25;3.80;;;20.60;81.00;;;;;;5113302;28;20035;-74
2023/08/25 08:07:06;;;;;;;6.65;3.92;;;20.70;81.80;;;;;;5114578;28;20103;-75
2023/08/25 08:09:32;;;;;;;7.03;3.17;;;20.80;82.40;;;;;;5114514;28;20028;-75
2023/08/25 08:11:58;;;;;;;5.03;3.00;;;20.90;82.30;;;;;;5114571;28;20072;-74
2023/08/25 08:14:24;;;;;;;6.70;3.40;;;21.00;81.80;;;;;;5114409;28;20461;-75
2023/08/25 08:16:49;;;;;;;6.63;3.35;;;21.10;81.40;;;;;;5112444;28;20031;-75
2023/08/25 08:19:15;;;;;;;3.88;2.67;;;21.30;81.50;;;;;;5114152;28;20093;-74
2023/08/25 08:21:40;;;;;;;4.68;2.88;;;21.30;80.50;;;;;;5114090;28;20027;-75
2023/08/25 08:24:06;;;;;;;7.40;3.47;;;21.40;79.20;;;;;;5114049;28;20051;-75
2023/08/25 08:26:32;;;;;;;4.68;3.10;;;21.40;78.90;;;;;;5114124;28;20020;-74
2023/08/25 08:28:57;;;;;;;4.45;3.05;;;21.50;79.00;;;;;;5113895;28;20035;-75
2023/08/25 08:31:23;;;;;;;7.15;3.10;;;21.60;79.00;;;;;;5114094;28;20494;-75
2023/08/25 08:33:48;;;;;;;5.82;3.42;;;21.60;78.50;;;;;;5112645;28;20434;-75
2023/08/25 08:36:19;;;;;;;5.32;3.20;;;21.70;77.70;;;;;;5114101;28;20201;-76
2023/08/25 08:38:44;;;;;;;3.50;3.10;;;21.70;77.70;;;;;;5113973;28;20049;-75
2023/08/25 08:41:10;;;;;;;5.43;3.05;;;21.70;78.30;;;;;;5113932;28;20019;-74
2023/08/25 08:43:39;;;;;;;5.05;3.25;;;21.70;77.60;;;;;;5113295;28;20404;-75
2023/08/25 08:46:06;;;;;;;4.65;2.92;;;21.70;78.30;;;;;;5113428;28;20057;-75
2023/08/25 08:48:33;;;;;;;5.45;3.33;;;21.70;79.30;;;;;;5113183;28;20456;-74
2023/08/25 08:51:01;;;;;;;6.30;4.10;;;21.90;80.10;;;;;;5113447;28;20051;-75
2023/08/25 08:53:27;;;;;;;7.13;3.88;;;22.00;79.80;;;;;;5112041;28;20043;-76
2023/08/25 08:55:54;;;;;;;6.40;3.38;;;22.20;79.60;;;;;;5113529;28;20015;-75
2023/08/25 08:58:21;;;;;;;4.68;3.20;;;22.20;79.30;;;;;;5113047;28;20078;-75
2023/08/25 09:00:46;;;;;;;3.88;3.17;;;22.20;77.70;;;;;;5113248;28;20058;-75
2023/08/25 09:03:18;;;;;;;4.47;3.10;;;22.20;76.90;;;;;;5113120;28;20074;-75
2023/08/25 09:05:44;;;;;;;7.75;3.17;;;22.20;76.70;;;;;;5113354;28;20048;-75
2023/08/25 09:08:12;;;;;;;4.18;2.92;;;22.20;76.20;;;;;;5113052;28;20472;-74
2023/08/25 09:10:37;;;;;;;5.85;2.92;;;22.20;75.80;;;;;;5113253;28;20103;-76
2023/08/25 09:13:03;;;;;;;5.45;2.80;;;22.20;76.20;;;;;;5112679;28;20618;-76
2023/08/25 09:15:30;;;;;;;5.30;3.03;;;22.20;76.40;;;;;;5112614;28;20023;-76
2023/08/25 09:18:01;;;;;;;6.47;3.33;;;22.20;76.50;;;;;;5112607;28;20038;-76
2023/08/25 09:20:28;;;;;;;5.10;3.13;;;22.20;77.10;;;;;;5112310;28;20500;-76
2023/08/25 09:22:55;;;;;;;5.63;3.30;;;22.10;77.80;;;;;;5112229;28;20035;-77
2023/08/25 09:25:21;;;;;;;5.70;3.10;;;22.00;78.00;;;;;;5109674;28;20024;-76
2023/08/25 09:27:47;;;;;;;4.60;2.88;;;22.00;77.10;;;;;;5112185;28;20338;-76
2023/08/25 09:30:12;;;;;;;6.97;2.92;;;22.00;77.80;;;;;;5112350;28;20043;-76
2023/08/25 09:32:38;;;;;;;4.47;2.78;;;22.10;77.30;;;;;;5112185;28;20034;-77
2023/08/25 09:35:15;;;;;;;3.80;2.92;;;22.30;76.00;;;;;;5112258;28;20019;-76
2023/08/25 09:37:41;;;;;;;4.40;2.13;;;22.40;76.20;;;;;;5109441;28;20513;-76
2023/08/25 09:40:14;;;;;;;4.20;2.15;;;22.60;73.60;;;;;;5112402;28;20119;-77
2023/08/25 09:42:40;;;;;;;2.33;2.00;;;22.80;71.20;;;;;;5112187;28;20040;-76
2023/08/25 09:45:06;;;;;;;2.47;1.98;;;23.10;68.00;;;;;;5112311;28;20020;-76
2023/08/25 09:47:32;;;;;;;3.25;1.88;;;23.40;67.60;;;;;;5112337;28;20020;-76
2023/08/25 09:49:58;;;;;;;3.10;2.28;;;23.60;68.80;;;;;;5112399;28;20099;-76
2023/08/25 09:52:29;;;;;;;4.45;2.40;;;23.80;69.30;;;;;;5112384;28;20031;-73
2023/08/25 09:54:55;;;;;;;4.38;2.38;;;24.00;68.70;;;;;;5112276;28;20050;-75
2023/08/25 09:57:23;;;;;;;2.03;1.83;;;24.20;68.10;;;;;;5112220;28;20110;-76
2023/08/25 09:59:49;;;;;;;2.90;2.08;;;24.30;67.10;;;;;;5111964;28;20106;-75
2023/08/25 10:02:15;;;;;;;1.88;1.60;;;24.60;65.50;;;;;;5112150;28;20197;-75
2023/08/25 10:04:41;;;;;;;3.03;2.00;;;24.90;64.80;;;;;;5110711;28;20023;-74
2023/08/25 10:07:07;;;;;;;3.75;2.03;;;25.10;63.80;;;;;;5112180;28;20432;-75
2023/08/25 10:09:33;;;;;;;2.95;1.70;;;25.20;60.00;;;;;;5112106;28;20034;-73
2023/08/25 10:11:59;;;;;;;2.30;1.48;;;25.00;57.20;;;;;;5112363;28;20026;-74
2023/08/25 10:14:27;;;;;;;5.28;1.77;;;25.10;56.40;;;;;;5112411;28;20106;-75
2023/08/25 10:16:53;;;;;;;1.90;1.67;;;25.10;55.70;;;;;;5111533;28;20020;-75
2023/08/25 10:19:23;;;;;;;2.75;1.73;;;25.10;56.50;;;;;;5112516;28;20042;-79
2023/08/25 10:21:50;;;;;;;2.50;2.28;;;25.30;57.10;;;;;;5112479;28;20019;-79
2023/08/25 10:24:20;;;;;;;2.60;1.90;;;25.30;56.30;;;;;;5112179;28;20093;-80
2023/08/25 10:26:46;;;;;;;6.63;2.40;;;25.30;57.10;;;;;;5112256;28;20027;-80
2023/08/25 10:29:15;;;;;;;2.97;1.95;;;25.50;55.50;;;;;;5112609;28;20030;-80
2023/08/25 10:31:46;;;;;;;2.55;1.95;;;25.60;56.00;;;;;;5112488;28;20024;-80
2023/08/25 10:34:36;;;;;;;6.65;2.00;;;25.60;55.80;;;;;;5112435;28;20043;-78
2023/08/25 10:37:07;;;;;;;2.70;2.20;;;25.70;54.50;;;;;;5112338;28;20043;-73
2023/08/25 10:40:11;;;;;;;4.13;2.05;;;25.50;54.80;;;;;;5112145;28;20012;-73
2023/08/25 10:42:37;;;;;;;4.35;2.13;;;25.30;55.80;;;;;;5091472;28;20036;-74
2023/08/25 10:45:09;;;;;;;4.15;2.50;;;25.10;57.40;;;;;;5116256;28;20034;-75
2023/08/25 10:47:42;;;;;;;4.30;2.40;;;25.00;58.20;;;;;;5115512;28;20103;-72
2023/08/25 10:50:08;;;;;;;4.18;2.50;;;24.80;58.80;;;;;;5115886;28;20024;-72
2023/08/25 10:52:40;;;;;;;3.13;2.28;;;24.60;59.10;;;;;;5115877;28;20028;-73
2023/08/25 10:55:37;;;;;;;3.45;3.15;;;24.50;60.00;;;;;;5114368;28;20468;-74
2023/08/25 10:58:06;;;;;;;3.30;2.92;;;24.30;60.70;;;;;;5111501;28;20032;-75
2023/08/25 11:00:34;;;;;;;4.90;2.83;;;24.40;61.40;;;;;;5115676;28;20022;-75
2023/08/25 11:03:03;;;;;;;4.40;3.00;;;24.40;61.90;;;;;;5115816;28;20477;-75
2023/08/25 11:05:30;;;;;;;6.57;3.03;;;24.30;62.00;;;;;;5116632;28;20086;-75
2023/08/25 11:07:56;;;;;;;4.35;3.17;;;24.30;63.20;;;;;;5115624;28;20027;-74
2023/08/25 11:10:22;;;;;;;7.05;3.10;;;24.30;63.00;;;;;;5116035;28;20020;-74
2023/08/25 11:12:53;;;;;;;5.43;3.30;;;24.30;62.80;;;;;;5115657;28;20377;-75
2023/08/25 11:15:21;;;;;;;5.75;3.10;;;24.30;63.10;;;;;;5116092;28;20528;-76
2023/08/25 11:17:46;;;;;;;5.57;3.00;;;24.40;62.50;;;;;;5115819;28;20500;-76
2023/08/25 11:20:12;;;;;;;3.33;2.90;;;24.40;62.30;;;;;;5120105;28;20031;-74
2023/08/25 11:22:54;;;;;;;4.82;3.00;;;24.60;61.70;;;;;;5115784;28;20043;-77
2023/08/25 11:25:20;;;;;;;5.38;3.42;;;24.40;60.70;;;;;;5115433;28;20164;-75
2023/08/25 11:27:50;;;;;;;5.28;3.50;;;24.50;61.20;;;;;;5115531;28;20103;-74
2023/08/25 11:30:16;;;;;;;4.43;3.30;;;24.50;61.40;;;;;;5121127;28;20024;-74
2023/08/25 11:32:45;;;;;;;4.47;3.33;;;24.50;61.50;;;;;;5096393;28;20035;-75
2023/08/25 11:35:10;;;;;;;6.05;3.53;;;24.60;62.30;;;;;;5115162;28;20077;-77
2023/08/25 11:37:36;;;;;;;7.18;3.72;;;24.50;61.70;;;;;;5115302;28;20461;-75
2023/08/25 11:40:01;;;;;;;5.10;3.85;;;24.60;62.30;;;;;;5115345;28;20480;-76
2023/08/25 11:42:28;;;;;;;4.28;3.05;;;24.60;60.80;;;;;;5113281;28;20077;-74
2023/08/25 11:44:53;;;;;;;6.63;3.28;;;24.60;60.70;;;;;;5114985;28;20489;-75
2023/08/25 11:47:20;;;;;;;8.23;3.92;;;24.60;60.40;;;;;;5114493;28;20098;-74
2023/08/25 11:49:48;;;;;;;6.13;3.38;;;24.70;61.00;;;;;;5114760;28;20472;-76
2023/08/25 11:52:15;;;;;;;5.97;3.50;;;24.80;58.80;;;;;;5114451;28;20043;-75
2023/08/25 11:54:48;;;;;;;4.90;3.65;;;24.80;59.40;;;;;;5114684;28;20042;-75
2023/08/25 11:57:14;;;;;;;6.13;3.45;;;24.90;59.50;;;;;;5114794;28;20469;-74
2023/08/25 11:59:45;;;;;;;8.15;5.13;;;24.80;58.80;;;;;;5114657;28;20024;-74
2023/08/25 12:02:15;;;;;;;6.30;3.55;;;24.80;60.30;;;;;;5114557;28;20030;-75
2023/08/25 12:04:51;;;;;;;5.43;3.58;;;24.80;59.50;;;;;;5114484;28;20034;-75
2023/08/25 12:07:24;;;;;;;7.88;4.47;;;24.80;59.80;;;;;;5114122;28;20536;-74
2023/08/25 12:09:59;;;;;;;7.15;3.55;;;24.60;59.60;;;;;;5114238;28;20088;-75
2023/08/25 12:12:28;;;;;;;6.80;3.70;;;24.50;59.00;;;;;;5114263;28;20106;-76
2023/08/25 12:14:54;;;;;;;8.10;4.22;;;24.60;59.60;;;;;;5114352;28;20016;-76
2023/08/25 12:17:26;;;;;;;10.88;3.95;;;24.50;59.60;;;;;;5114235;28;20027;-76
2023/08/25 12:19:52;;;;;;;5.03;3.70;;;24.60;58.60;;;;;;5114292;28;20020;-76
2023/08/25 12:22:18;;;;;;;5.15;3.70;;;24.40;57.20;;;;;;5114041;28;20042;-75
2023/08/25 12:24:44;;;;;;;6.45;4.00;;;24.30;57.80;;;;;;5113658;28;20019;-75
2023/08/25 12:27:10;;;;;;;4.65;3.38;;;24.20;57.80;;;;;;5114136;28;20026;-74
2023/08/25 12:29:36;;;;;;;6.45;3.45;;;24.20;57.50;;;;;;5112317;28;20024;-74
2023/08/25 12:32:04;;;;;;;9.75;3.60;;;24.30;56.70;;;;;;5113667;28;20098;-75
2023/08/25 12:34:30;;;;;;;4.10;3.50;;;24.30;58.70;;;;;;5113873;28;20015;-73
2023/08/25 12:36:56;;;;;;;6.47;3.75;;;24.20;58.40;;;;;;5115005;28;20526;-83
2023/08/25 12:39:24;;;;;;;8.40;4.05;;;24.30;58.60;;;;;;5115797;28;20027;-85
2023/08/25 12:41:49;;;;;;;6.65;3.58;;;24.30;58.50;;;;;;5115937;28;20357;-82
2023/08/25 12:44:15;;;;;;;7.70;3.72;;;24.50;58.20;;;;;;5114716;28;20062;-74